createdAt,value
2018-03-11T00:01:18.412Z,9.93
2018-03-11T00:03:46.793Z,9.57
2018-03-11T00:06:15.075Z,8.90
2018-03-11T00:08:43.363Z,9.33
2018-03-11T00:11:11.737Z,8.50
2018-03-11T00:13:40.009Z,8.57
2018-03-11T00:16:08.291Z,9.03
2018-03-11T00:18:36.592Z,8.93
2018-03-11T00:21:04.147Z,10.03
2018-03-11T00:23:32.530Z,8.73
2018-03-11T00:26:00.798Z,8.20
2018-03-11T00:28:29.076Z,8.60
2018-03-11T00:30:57.371Z,8.67
2018-03-11T00:33:25.655Z,8.70
2018-03-11T00:35:53.923Z,8.10
2018-03-11T00:38:22.202Z,8.33
2018-03-11T00:40:50.502Z,8.70
2018-03-11T00:43:18.063Z,8.13
2018-03-11T00:45:46.415Z,8.47
2018-03-11T00:48:13.935Z,8.27
2018-03-11T00:50:41.471Z,8.07
2018-03-11T00:53:09.735Z,7.53
2018-03-11T00:55:38.041Z,7.70
2018-03-11T00:58:05.630Z,8.07
2018-03-11T01:00:33.159Z,7.73
2018-03-11T01:03:01.546Z,7.70
2018-03-11T01:05:29.069Z,7.77
2018-03-11T01:07:56.569Z,7.23
2018-03-11T01:10:24.949Z,7.53
2018-03-11T01:12:53.232Z,7.40
2018-03-11T01:15:20.803Z,6.93
2018-03-11T01:17:48.360Z,7.03
2018-03-11T01:20:16.630Z,7.63
2018-03-11T01:22:44.931Z,7.20
2018-03-11T01:25:12.490Z,7.33
2018-03-11T01:27:41.969Z,7.43
2018-03-11T01:30:09.494Z,6.80
2018-03-11T01:32:37.003Z,6.80
2018-03-11T01:35:04.579Z,6.83
2018-03-11T01:37:32.872Z,7.20
2018-03-11T01:40:00.433Z,6.60
2018-03-11T01:42:28.705Z,6.77
2018-03-11T01:44:56.991Z,6.43
2018-03-11T01:47:25.375Z,6.43
2018-03-11T01:49:52.885Z,6.53
2018-03-11T01:52:20.385Z,6.70
2018-03-11T01:54:48.655Z,6.47
2018-03-11T01:57:16.924Z,6.50
2018-03-11T01:59:44.523Z,6.73
2018-03-11T02:02:12.803Z,6.77
2018-03-11T02:04:41.078Z,6.50
2018-03-11T02:07:09.363Z,5.83
2018-03-11T02:09:37.641Z,6.47
2018-03-11T02:12:05.940Z,5.90
2018-03-11T02:14:34.476Z,6.43
2018-03-11T02:17:01.981Z,5.73
2018-03-11T02:19:30.247Z,6.17
2018-03-11T02:21:58.511Z,6.53
2018-03-11T02:24:26.039Z,5.83
2018-03-11T02:26:53.546Z,6.90
2018-03-11T02:29:22.470Z,6.10
2018-03-11T02:31:49.984Z,6.40
2018-03-11T02:34:17.588Z,5.80
2018-03-11T02:36:45.972Z,6.60
2018-03-11T02:39:14.241Z,6.27
2018-03-11T02:41:42.532Z,6.10
2018-03-11T02:44:10.815Z,6.40
2018-03-11T02:46:39.089Z,6.50
2018-03-11T02:49:07.366Z,5.97
2018-03-11T02:51:35.666Z,6.07
2018-03-11T02:54:03.176Z,6.20
2018-03-11T02:56:30.689Z,5.93
2018-03-11T02:58:58.191Z,5.90
2018-03-11T03:01:25.713Z,5.93
2018-03-11T03:03:54.089Z,5.73
2018-03-11T03:06:22.370Z,6.37
2018-03-11T03:08:50.641Z,6.30
2018-03-11T03:11:18.917Z,5.60
2018-03-11T03:13:46.506Z,5.40
2018-03-11T03:16:14.011Z,5.93
2018-03-11T03:18:41.626Z,5.60
2018-03-11T03:21:10.340Z,5.80
2018-03-11T03:23:37.880Z,5.60
2018-03-11T03:26:06.149Z,5.83
2018-03-11T03:28:34.429Z,5.40
2018-03-11T03:31:02.706Z,5.60
2018-03-11T03:33:30.987Z,5.73
2018-03-11T03:35:58.494Z,5.10
2018-03-11T03:38:26.020Z,5.80
2018-03-11T03:40:54.306Z,4.90
2018-03-11T03:43:22.574Z,5.13
2018-03-11T03:45:50.158Z,5.60
2018-03-11T03:48:18.538Z,5.00
2018-03-11T03:50:46.813Z,5.20
2018-03-11T03:53:15.092Z,5.47
2018-03-11T03:55:43.389Z,5.57
2018-03-11T03:58:10.963Z,4.93
2018-03-11T04:00:38.471Z,4.80
2018-03-11T04:03:06.000Z,5.03
2018-03-11T04:05:33.507Z,4.73
2018-03-11T04:08:01.092Z,5.50
2018-03-11T04:10:29.376Z,5.03
2018-03-11T04:12:57.668Z,5.20
2018-03-11T04:15:25.226Z,4.80
2018-03-11T04:17:53.602Z,4.70
2018-03-11T04:20:21.890Z,5.10
2018-03-11T04:22:50.156Z,4.73
2018-03-11T04:25:18.427Z,4.80
2018-03-11T04:27:45.949Z,4.77
2018-03-11T04:30:13.475Z,5.30
2018-03-11T04:32:41.748Z,4.50
2018-03-11T04:35:10.039Z,4.90
2018-03-11T04:37:38.317Z,4.80
2018-03-11T04:40:06.584Z,4.67
2018-03-11T04:42:34.874Z,4.63
2018-03-11T04:45:02.397Z,4.43
2018-03-11T04:47:29.896Z,4.10
2018-03-11T04:49:58.173Z,4.67
2018-03-11T04:52:26.472Z,4.40
2018-03-11T04:54:54.740Z,4.50
2018-03-11T04:57:23.034Z,4.27
2018-03-11T04:59:50.539Z,4.40
2018-03-11T05:02:18.062Z,4.63
2018-03-11T05:04:46.530Z,4.40
2018-03-11T05:07:14.800Z,4.50
2018-03-11T05:09:42.382Z,4.40
2018-03-11T05:12:10.661Z,4.43
2018-03-11T05:14:38.946Z,4.60
2018-03-11T05:17:07.213Z,4.17
2018-03-11T05:19:36.428Z,3.97
2018-03-11T05:22:04.696Z,4.33
2018-03-11T05:24:32.992Z,4.60
2018-03-11T05:27:01.263Z,3.87
2018-03-11T05:29:29.532Z,4.50
2018-03-11T05:31:57.117Z,4.40
2018-03-11T05:34:25.387Z,4.50
2018-03-11T05:36:53.673Z,3.70
2018-03-11T05:39:21.946Z,4.50
2018-03-11T05:41:50.240Z,4.23
2018-03-11T05:44:17.750Z,4.30
2018-03-11T05:46:45.264Z,4.13
2018-03-11T05:49:13.538Z,4.27
2018-03-11T05:51:41.809Z,4.00
2018-03-11T05:54:09.393Z,4.30
2018-03-11T05:56:37.661Z,4.33
2018-03-11T05:59:05.945Z,4.40
2018-03-11T06:01:34.230Z,3.73
2018-03-11T06:04:02.496Z,3.80
2018-03-11T06:06:30.006Z,4.00
2018-03-11T06:08:57.520Z,4.30
2018-03-11T06:11:25.027Z,3.70
2018-03-11T06:13:52.539Z,3.77
2018-03-11T06:16:20.042Z,3.50
2018-03-11T06:18:48.018Z,3.83
2018-03-11T06:21:15.526Z,3.97
2018-03-11T06:23:43.030Z,3.90
2018-03-11T06:26:11.405Z,3.67
2018-03-11T06:28:39.676Z,3.63
2018-03-11T06:31:07.969Z,3.37
2018-03-11T06:33:36.247Z,3.40
2018-03-11T06:36:04.530Z,3.23
2018-03-11T06:38:32.799Z,3.57
2018-03-11T06:41:01.098Z,3.60
2018-03-11T06:43:30.223Z,3.80
2018-03-11T06:45:57.759Z,3.53
2018-03-11T06:48:26.142Z,3.57
2018-03-11T06:50:54.421Z,3.50
2018-03-11T06:53:22.711Z,3.70
2018-03-11T06:55:50.267Z,4.00
2018-03-11T06:58:18.549Z,3.50
2018-03-11T07:00:46.821Z,3.70
2018-03-11T07:03:15.562Z,3.30
2018-03-11T07:05:43.091Z,3.70
2018-03-11T07:08:10.655Z,3.43
2018-03-11T07:10:38.216Z,3.83
2018-03-11T07:13:05.774Z,3.60
2018-03-11T07:15:34.061Z,3.67
2018-03-11T07:18:02.824Z,3.93
2018-03-11T07:20:30.335Z,3.70
2018-03-11T07:22:58.590Z,3.40
2018-03-11T07:25:26.861Z,3.77
2018-03-11T07:27:55.135Z,3.40
2018-03-11T07:30:28.187Z,3.30
2018-03-11T07:32:55.811Z,3.77
2018-03-11T07:35:24.170Z,3.77
2018-03-11T07:37:51.680Z,3.57
2018-03-11T07:40:19.219Z,3.30
2018-03-11T07:42:46.807Z,3.37
2018-03-11T07:45:14.351Z,3.70
2018-03-11T07:47:41.911Z,3.93
2018-03-11T07:50:09.472Z,3.33
2018-03-11T07:52:37.741Z,3.83
2018-03-11T07:55:06.020Z,3.50
2018-03-11T07:57:34.298Z,3.43
2018-03-11T08:00:02.600Z,3.57
2018-03-11T08:02:31.087Z,3.77
2018-03-11T08:04:58.605Z,3.60
2018-03-11T08:07:26.108Z,3.60
2018-03-11T08:09:54.485Z,3.10
2018-03-11T08:12:22.771Z,3.40
2018-03-11T08:14:51.040Z,3.70
2018-03-11T08:17:19.332Z,3.80
2018-03-11T08:19:47.597Z,3.53
2018-03-11T08:22:15.138Z,3.63
2018-03-11T08:24:42.741Z,3.70
2018-03-11T08:27:11.014Z,3.50
2018-03-11T08:29:39.288Z,3.60
2018-03-11T08:32:07.563Z,3.33
2018-03-11T08:34:35.072Z,5.23
2018-03-11T08:37:02.590Z,11.27
2018-03-11T08:39:30.180Z,12.00
2018-03-11T08:41:57.739Z,8.50
2018-03-11T08:44:26.134Z,8.40
2018-03-11T08:46:53.681Z,7.53
2018-03-11T08:49:22.065Z,7.23
2018-03-11T08:51:50.345Z,9.83
2018-03-11T08:54:18.637Z,10.67
2018-03-11T08:56:46.158Z,11.17
2018-03-11T08:59:13.708Z,10.63
2018-03-11T09:01:41.332Z,9.30
2018-03-11T09:04:08.888Z,7.77
2018-03-11T09:06:36.453Z,7.07
2018-03-11T09:09:04.756Z,5.83
2018-03-11T09:11:32.270Z,5.00
2018-03-11T09:13:59.789Z,4.83
2018-03-11T09:16:27.295Z,5.07
2018-03-11T09:18:54.813Z,6.87
2018-03-11T09:21:22.332Z,8.10
2018-03-11T09:23:50.616Z,8.50
2018-03-11T09:26:18.906Z,9.60
2018-03-11T09:28:47.179Z,8.97
2018-03-11T09:31:15.477Z,8.57
2018-03-11T09:33:42.992Z,8.63
2018-03-11T09:36:10.505Z,9.37
2018-03-11T09:38:38.024Z,7.57
2018-03-11T09:41:05.562Z,7.47
2018-03-11T09:43:33.076Z,8.17
2018-03-11T09:46:01.375Z,8.17
2018-03-11T09:48:29.005Z,9.40
2018-03-11T09:50:56.517Z,9.80
2018-03-11T09:53:24.035Z,10.33
2018-03-11T09:55:51.625Z,9.77
2018-03-11T09:58:19.914Z,11.53
2018-03-11T10:00:48.294Z,11.33
2018-03-11T10:03:16.568Z,10.77
2018-03-11T10:05:44.845Z,10.67
2018-03-11T10:08:13.120Z,10.60
2018-03-11T10:10:41.424Z,10.30
2018-03-11T10:13:08.935Z,8.90
2018-03-11T10:15:36.445Z,9.13
2018-03-11T10:18:04.728Z,9.17
2018-03-11T10:20:32.282Z,8.83
2018-03-11T10:23:00.570Z,7.97
2018-03-11T10:25:28.135Z,8.60
2018-03-11T10:27:55.693Z,8.97
2018-03-11T10:30:24.078Z,16.93
2018-03-11T10:32:52.467Z,18.07
2018-03-11T10:35:19.983Z,14.17
2018-03-11T10:37:47.511Z,11.53
2018-03-11T10:40:15.036Z,10.80
2018-03-11T10:42:42.555Z,9.17
2018-03-11T10:45:10.077Z,9.70
2018-03-11T10:47:38.358Z,11.00
2018-03-11T10:50:05.930Z,11.63
2018-03-11T10:52:34.042Z,16.20
2018-03-11T10:55:01.559Z,16.77
2018-03-11T10:57:29.084Z,14.17
2018-03-11T10:59:56.605Z,13.23
2018-03-11T11:02:27.948Z,12.80
2018-03-11T11:05:00.525Z,11.90
2018-03-11T11:07:28.084Z,13.33
2018-03-11T11:09:56.466Z,13.57
2018-03-11T11:12:24.754Z,12.67
2018-03-11T11:14:52.316Z,12.00
2018-03-11T11:17:20.589Z,10.83
2018-03-11T11:19:48.872Z,11.03
2018-03-11T11:22:17.154Z,10.47
2018-03-11T11:24:45.539Z,10.10
2018-03-11T11:27:13.939Z,9.20
2018-03-11T11:29:42.411Z,8.30
2018-03-11T11:32:09.922Z,8.17
2018-03-11T11:34:37.437Z,10.17
2018-03-11T11:37:04.950Z,9.57
2018-03-11T11:39:32.561Z,8.53
2018-03-11T11:42:00.837Z,8.00
2018-03-11T11:44:29.742Z,8.03
2018-03-11T11:46:57.283Z,7.33
2018-03-11T11:49:25.594Z,7.47
2018-03-11T11:51:53.103Z,7.50
2018-03-11T11:54:20.620Z,7.20
2018-03-11T11:56:48.175Z,7.17
2018-03-11T11:59:16.445Z,7.37
2018-03-11T12:01:44.734Z,6.77
2018-03-11T12:04:12.294Z,6.50
2018-03-11T12:06:40.988Z,5.70
2018-03-11T12:09:09.271Z,5.40
2018-03-11T12:11:36.790Z,5.40
2018-03-11T12:14:04.298Z,5.53
2018-03-11T12:16:31.872Z,5.90
2018-03-11T12:18:59.392Z,5.77
2018-03-11T12:21:26.987Z,5.83
2018-03-11T12:23:55.269Z,5.40
2018-03-11T12:26:23.646Z,5.63
2018-03-11T12:28:51.918Z,5.53
2018-03-11T12:31:20.188Z,5.90
2018-03-11T12:33:48.469Z,6.20
2018-03-11T12:36:15.982Z,5.30
2018-03-11T12:38:43.517Z,5.40
2018-03-11T12:41:11.915Z,5.73
2018-03-11T12:43:39.428Z,6.07
2018-03-11T12:46:06.972Z,5.00
2018-03-11T12:48:34.476Z,5.80
2018-03-11T12:51:02.751Z,5.30
2018-03-11T12:53:30.340Z,5.13
2018-03-11T12:55:57.902Z,5.57
2018-03-11T12:58:26.937Z,5.13
2018-03-11T13:00:54.487Z,5.17
2018-03-11T13:03:21.988Z,4.77
2018-03-11T13:05:49.595Z,5.03
2018-03-11T13:08:17.107Z,5.70
2018-03-11T13:10:44.614Z,5.10
2018-03-11T13:13:12.889Z,5.07
2018-03-11T13:15:41.178Z,5.13
2018-03-11T13:18:09.464Z,4.83
2018-03-11T13:20:48.970Z,4.43
2018-03-11T13:23:16.487Z,4.93
2018-03-11T13:25:44.032Z,4.40
2018-03-11T13:28:24.179Z,4.23
2018-03-11T13:30:51.746Z,4.60
2018-03-11T13:33:31.029Z,4.30
2018-03-11T13:35:58.634Z,4.90
2018-03-11T13:38:39.603Z,4.33
2018-03-11T13:41:08.974Z,4.30
2018-03-11T13:43:36.438Z,4.23
2018-03-11T13:46:16.238Z,4.20
2018-03-11T13:48:43.740Z,3.83
2018-03-11T13:51:11.973Z,4.53
2018-03-11T13:54:00.394Z,4.40
2018-03-11T13:56:28.683Z,4.77
2018-03-11T13:58:56.974Z,3.83
2018-03-11T14:01:24.537Z,4.27
2018-03-11T14:03:52.052Z,4.73
2018-03-11T14:06:20.330Z,4.70
2018-03-11T14:08:47.832Z,5.00
2018-03-11T14:11:16.097Z,4.70
2018-03-11T14:13:45.006Z,4.43
2018-03-11T14:16:13.385Z,4.50
2018-03-11T14:18:41.656Z,4.43
2018-03-11T14:21:09.954Z,4.60
2018-03-11T14:23:38.230Z,4.93
2018-03-11T14:26:06.732Z,4.50
2018-03-11T14:28:34.246Z,4.70
2018-03-11T14:31:01.849Z,4.50
2018-03-11T14:33:29.361Z,4.60
2018-03-11T14:35:56.872Z,3.97
2018-03-11T14:38:25.152Z,4.33
2018-03-11T14:40:53.428Z,4.43
2018-03-11T14:43:21.709Z,4.50
2018-03-11T14:45:50.029Z,4.70
2018-03-11T14:48:17.538Z,4.87
2018-03-11T14:50:45.062Z,5.10
2018-03-11T14:53:12.580Z,5.03
2018-03-11T14:55:40.868Z,4.33
2018-03-11T14:58:09.250Z,4.77
2018-03-11T15:00:37.641Z,4.47
2018-03-11T15:03:05.154Z,4.53
2018-03-11T15:05:32.670Z,4.30
2018-03-11T15:08:00.225Z,4.53
2018-03-11T15:10:28.603Z,4.77
2018-03-11T15:12:56.888Z,5.07
2018-03-11T15:15:25.176Z,4.67
2018-03-11T15:17:52.732Z,5.37
2018-03-11T15:20:21.636Z,5.13
2018-03-11T15:22:50.008Z,5.13
2018-03-11T15:25:18.279Z,4.80
2018-03-11T15:27:46.582Z,5.70
2018-03-11T15:30:14.139Z,5.30
2018-03-11T15:32:42.407Z,6.13
2018-03-11T15:35:10.681Z,5.40
2018-03-11T15:37:38.978Z,5.20
2018-03-11T15:40:07.274Z,5.33
2018-03-11T15:42:34.794Z,5.20
2018-03-11T15:45:02.331Z,5.73
2018-03-11T15:47:29.844Z,5.50
2018-03-11T15:49:57.370Z,5.97
2018-03-11T15:52:24.880Z,5.97
2018-03-11T15:54:52.404Z,5.50
2018-03-11T15:57:19.921Z,5.50
2018-03-11T15:59:47.922Z,5.10
2018-03-11T16:02:15.430Z,4.77
2018-03-11T16:04:43.717Z,5.20
2018-03-11T16:07:11.992Z,5.17
2018-03-11T16:09:40.270Z,5.17
2018-03-11T16:12:08.563Z,4.93
2018-03-11T16:14:36.847Z,4.97
2018-03-11T16:17:04.416Z,5.13
2018-03-11T16:19:31.959Z,8.63
2018-03-11T16:22:00.240Z,10.73
2018-03-11T16:24:28.918Z,12.00
2018-03-11T16:26:57.008Z,9.90
2018-03-11T16:29:25.285Z,9.53
2018-03-11T16:31:53.621Z,9.47
2018-03-11T16:34:21.099Z,8.83
2018-03-11T16:36:48.621Z,9.17
2018-03-11T16:39:16.177Z,7.93
2018-03-11T16:41:43.693Z,8.27
2018-03-11T16:44:11.231Z,7.57
2018-03-11T16:46:38.737Z,7.13
2018-03-11T16:49:06.271Z,7.33
2018-03-11T16:51:33.787Z,7.20
2018-03-11T16:54:02.068Z,7.30
2018-03-11T16:56:30.458Z,7.33
2018-03-11T16:58:57.979Z,7.47
2018-03-11T17:01:36.698Z,13.43
2018-03-11T17:04:05.720Z,13.43
2018-03-11T17:06:33.277Z,13.70
2018-03-11T17:09:00.878Z,11.70
2018-03-11T17:11:28.427Z,11.60
2018-03-11T17:13:55.947Z,10.53
2018-03-11T17:16:23.487Z,11.30
2018-03-11T17:18:51.132Z,10.80
2018-03-11T17:21:18.700Z,10.80
2018-03-11T17:23:46.241Z,10.20
2018-03-11T17:26:14.539Z,10.03
2018-03-11T17:28:43.010Z,10.67
2018-03-11T17:31:11.301Z,9.20
2018-03-11T17:33:39.907Z,9.43
2018-03-11T17:36:07.570Z,9.20
2018-03-11T17:38:35.127Z,10.40
2018-03-11T17:41:06.304Z,11.97
2018-03-11T17:43:34.135Z,9.77
2018-03-11T17:46:02.137Z,11.53
2018-03-11T17:48:29.700Z,11.30
2018-03-11T17:50:57.267Z,11.80
2018-03-11T17:53:24.805Z,11.30
2018-03-11T17:55:52.342Z,13.67
2018-03-11T17:58:19.926Z,14.00
2018-03-11T18:00:48.212Z,15.67
2018-03-11T18:03:15.729Z,15.80
2018-03-11T18:05:43.263Z,30.30
2018-03-11T18:08:10.785Z,39.83
2018-03-11T18:10:39.097Z,35.33
2018-03-11T18:13:06.620Z,30.70
2018-03-11T18:15:34.136Z,26.47
2018-03-11T18:18:01.792Z,24.73
2018-03-11T18:20:29.340Z,22.67
2018-03-11T18:22:56.912Z,22.13
2018-03-11T18:25:25.237Z,21.40
2018-03-11T18:27:53.253Z,20.77
2018-03-11T18:30:21.649Z,19.93
2018-03-11T18:32:49.192Z,19.20
2018-03-11T18:35:17.482Z,18.17
2018-03-11T18:37:45.763Z,17.70
2018-03-11T18:40:14.087Z,17.43
2018-03-11T18:42:41.596Z,16.17
2018-03-11T18:45:09.894Z,16.67
2018-03-11T18:47:37.409Z,16.50
2018-03-11T18:50:04.949Z,15.23
2018-03-11T18:52:32.481Z,15.00
2018-03-11T18:55:00.040Z,15.10
2018-03-11T18:57:28.327Z,14.77
2018-03-11T18:59:56.705Z,13.40
2018-03-11T19:02:24.997Z,14.20
2018-03-11T19:04:52.551Z,13.57
2018-03-11T19:07:20.847Z,12.57
2018-03-11T19:09:48.359Z,11.87
2018-03-11T19:12:15.902Z,12.73
2018-03-11T19:14:43.411Z,12.63
2018-03-11T19:17:11.687Z,12.63
2018-03-11T19:19:39.975Z,11.83
2018-03-11T19:22:08.257Z,11.33
2018-03-11T19:24:36.533Z,11.23
2018-03-11T19:27:04.805Z,10.70
2018-03-11T19:29:32.313Z,10.63
2018-03-11T19:31:59.828Z,10.87
2018-03-11T19:34:27.373Z,11.03
2018-03-11T19:36:54.878Z,11.27
2018-03-11T19:39:23.166Z,11.40
2018-03-11T19:41:50.733Z,11.20
2018-03-11T19:44:18.987Z,10.77
2018-03-11T19:46:46.518Z,10.13
2018-03-11T19:49:14.033Z,9.43
2018-03-11T19:51:42.306Z,9.53
2018-03-11T19:54:10.576Z,9.20
2018-03-11T19:56:38.880Z,9.23
2018-03-11T19:59:06.464Z,9.70
2018-03-11T20:01:33.974Z,9.87
2018-03-11T20:04:01.595Z,9.47
2018-03-11T20:06:29.127Z,9.23
2018-03-11T20:08:57.403Z,9.30
2018-03-11T20:11:25.681Z,9.20
2018-03-11T20:13:53.971Z,9.40
2018-03-11T20:16:23.091Z,8.23
2018-03-11T20:18:50.637Z,9.33
2018-03-11T20:21:18.933Z,7.97
2018-03-11T20:23:46.480Z,7.93
2018-03-11T20:26:14.776Z,7.93
2018-03-11T20:28:42.605Z,7.80
2018-03-11T20:31:10.137Z,7.63
2018-03-11T20:33:37.665Z,8.13
2018-03-11T20:36:05.229Z,8.47
2018-03-11T20:38:32.742Z,8.57
2018-03-11T20:41:00.261Z,8.00
2018-03-11T20:43:28.299Z,7.97
2018-03-11T20:45:55.889Z,7.70
2018-03-11T20:48:24.273Z,7.37
2018-03-11T20:50:52.556Z,7.23
2018-03-11T20:53:20.932Z,7.20
2018-03-11T20:55:49.213Z,7.07
2018-03-11T20:58:17.496Z,7.20
2018-03-11T21:00:45.771Z,7.10
2018-03-11T21:03:14.044Z,7.17
2018-03-11T21:05:42.322Z,6.93
2018-03-11T21:08:09.831Z,6.03
2018-03-11T21:10:37.340Z,6.30
2018-03-11T21:13:04.945Z,5.97
2018-03-11T21:15:32.452Z,5.70
2018-03-11T21:17:59.959Z,6.13
2018-03-11T21:20:27.492Z,6.70
2018-03-11T21:22:54.998Z,6.47
2018-03-11T21:25:22.507Z,6.57
2018-03-11T21:27:50.021Z,6.63
2018-03-11T21:30:29.558Z,6.30
2018-03-11T21:32:57.116Z,6.00
2018-03-11T21:35:24.632Z,6.00
2018-03-11T21:37:53.240Z,6.17
2018-03-11T21:40:20.829Z,6.53
2018-03-11T21:42:49.103Z,5.60
2018-03-11T21:45:17.368Z,5.77
2018-03-11T21:47:44.952Z,5.60
2018-03-11T21:50:13.230Z,5.70
2018-03-11T21:52:41.500Z,5.20
2018-03-11T21:55:09.007Z,6.07
2018-03-11T21:57:36.539Z,6.00
2018-03-11T22:00:04.813Z,5.17
2018-03-11T22:02:33.116Z,5.33
2018-03-11T22:05:00.671Z,5.50
2018-03-11T22:07:28.181Z,5.70
2018-03-11T22:09:55.794Z,5.47
2018-03-11T22:12:24.073Z,5.23
2018-03-11T22:14:52.362Z,5.87
2018-03-11T22:17:20.631Z,5.20
2018-03-11T22:19:48.898Z,5.40
2018-03-11T22:22:16.416Z,5.57
2018-03-11T22:24:43.939Z,5.27
2018-03-11T22:27:12.226Z,5.27
2018-03-11T22:29:40.506Z,5.30
2018-03-11T22:32:08.778Z,5.50
2018-03-11T22:34:37.061Z,5.30
2018-03-11T22:37:05.343Z,5.60
2018-03-11T22:39:33.631Z,5.60
2018-03-11T22:42:02.010Z,4.90
2018-03-11T22:44:30.302Z,5.20
2018-03-11T22:46:57.856Z,5.90
2018-03-11T22:49:26.134Z,4.90
2018-03-11T22:51:54.772Z,4.93
2018-03-11T22:54:22.282Z,5.50
2018-03-11T22:56:50.771Z,4.97
2018-03-11T22:59:19.051Z,5.10
2018-03-11T23:01:47.324Z,5.03
2018-03-11T23:04:15.589Z,4.80
2018-03-11T23:06:43.179Z,5.00
2018-03-11T23:09:11.570Z,5.40
2018-03-11T23:11:39.124Z,4.87
2018-03-11T23:14:07.424Z,5.27
2018-03-11T23:16:34.975Z,4.93
2018-03-11T23:19:15.158Z,5.47
2018-03-11T23:21:42.690Z,5.30
2018-03-11T23:24:11.073Z,4.60
2018-03-11T23:26:39.475Z,4.87
2018-03-11T23:29:06.981Z,4.90
2018-03-11T23:31:34.580Z,4.70
2018-03-11T23:34:02.858Z,4.43
2018-03-11T23:36:31.146Z,4.97
2018-03-11T23:38:59.544Z,4.60
2018-03-11T23:41:27.049Z,4.50
2018-03-11T23:43:54.652Z,4.50
2018-03-11T23:46:22.933Z,4.63
2018-03-11T23:48:51.211Z,4.73
2018-03-11T23:51:19.496Z,4.90
2018-03-11T23:53:48.093Z,4.83
2018-03-11T23:56:15.593Z,4.80
2018-03-11T23:58:43.088Z,4.87
